Time;durP1;ratioP1;P1;durP2;ratioP2;P2;SDS_P1;SDS_P2;PMS_P1;PMS_P2;Temp;Humidity;BMP_temperature;BMP_pressure;BME280_temperature;BME280_humidity;BME280_pressure;Samples;Min_cycle;Max_cycle;Signal;HPM_P1;HPM_P2
2022/07/31 00:00:53;;;;;;;;;;;;;;;;;;10500054;28;19924;-68
2022/07/31 00:05:55;;;;;;;;;;;;;;;;;;10499645;28;20359;-68
2022/07/31 00:10:57;;;;;;;;;;;;;;;;;;10500850;28;19928;-68
2022/07/31 00:15:59;;;;;;;;;;;;;;;;;;10499367;28;19947;-67
2022/07/31 00:21:01;;;;;;;;;;;;;;;;;;10500884;28;19931;-68
2022/07/31 00:26:03;;;;;;;;;;;;;;;;;;10499725;28;19924;-68
2022/07/31 00:31:05;;;;;;;;;;;;;;;;;;10499368;28;19932;-68
2022/07/31 00:36:08;;;;;;;;;;;;;;;;;;10497864;28;20398;-68
2022/07/31 00:41:10;;;;;;;;;;;;;;;;;;10500060;28;19931;-68
2022/07/31 00:46:12;;;;;;;;;;;;;;;;;;10499504;28;19932;-67
2022/07/31 00:51:15;;;;;;;;;;;;;;;;;;10536187;28;19932;-68
2022/07/31 00:56:17;;;;;;;;;;;;;;;;;;10540114;28;20272;-68
2022/07/31 01:01:19;;;;;;;;;;;;;;;;;;10538056;28;19924;-68
2022/07/31 01:06:21;;;;;;;;;;;;;;;;;;10540381;28;19924;-68
2022/07/31 01:11:24;;;;;;;;;;;;;;;;;;10539343;28;19924;-68
2022/07/31 01:16:26;;;;;;;;;;;;;;;;;;10540257;28;19924;-68
2022/07/31 01:21:28;;;;;;;;;;;;;;;;;;10537731;28;19925;-68
2022/07/31 01:26:30;;;;;;;;;;;;;;;;;;10539671;28;19924;-67
2022/07/31 01:31:32;;;;;;;;;;;;;;;;;;10538216;28;19933;-68
2022/07/31 01:36:34;;;;;;;;;;;;;;;;;;10539911;28;19935;-68
2022/07/31 01:41:36;;;;;;;;;;;;;;;;;;10537456;28;20287;-68
2022/07/31 01:46:38;;;;;;;;;;;;;;;;;;10536453;28;20294;-68
2022/07/31 01:51:43;;;;;;;;;;;;;;;;;;10505663;28;19924;-68
2022/07/31 01:56:45;;;;;;;;;;;;;;;;;;10504783;28;20372;-68
2022/07/31 02:01:47;;;;;;;;;;;;;;;;;;10505611;28;19929;-68
2022/07/31 02:06:49;;;;;;;;;;;;;;;;;;10505089;28;19932;-68
2022/07/31 02:11:51;;;;;;;;;;;;;;;;;;10504281;28;20409;-68
2022/07/31 02:16:55;;;;;;;;;;;;;;;;;;10504534;28;19925;-68
2022/07/31 02:21:58;;;;;;;;;;;;;;;;;;10505519;28;19935;-68
2022/07/31 02:27:00;;;;;;;;;;;;;;;;;;10504206;28;19925;-68
2022/07/31 02:32:02;;;;;;;;;;;;;;;;;;10504166;28;19931;-68
2022/07/31 02:37:04;;;;;;;;;;;;;;;;;;10504056;28;19924;-68
2022/07/31 02:42:06;;;;;;;;;;;;;;;;;;10504086;28;20391;-68
2022/07/31 02:47:08;;;;;;;;;;;;;;;;;;10502903;28;20359;-68
2022/07/31 02:52:11;;;;;;;;;;;;;;;;;;10503374;28;19932;-68
2022/07/31 02:57:14;;;;;;;;;;;;;;;;;;10501706;28;19975;-68
2022/07/31 03:02:16;;;;;;;;;;;;;;;;;;10520551;28;19931;-67
2022/07/31 03:07:18;;;;;;;;;;;;;;;;;;10544516;28;19936;-67
2022/07/31 03:12:20;;;;;;;;;;;;;;;;;;10543638;28;20282;-67
2022/07/31 03:17:22;;;;;;;;;;;;;;;;;;10514704;22;19931;-67
2022/07/31 03:22:24;;;;;;;;;;;;;;;;;;10502031;28;19932;-67
2022/07/31 03:27:26;;;;;;;;;;;;;;;;;;10501397;28;19924;-67
2022/07/31 03:32:29;;;;;;;;;;;;;;;;;;10501870;28;19925;-67
2022/07/31 03:37:31;;;;;;;;;;;;;;;;;;10501719;28;19924;-67
2022/07/31 03:42:33;;;;;;;;;;;;;;;;;;10500455;28;19928;-67
2022/07/31 03:47:35;;;;;;;;;;;;;;;;;;10501158;28;19936;-67
2022/07/31 03:52:37;;;;;;;;;;;;;;;;;;10500999;28;19928;-67
2022/07/31 03:57:41;;;;;;;;;;;;;;;;;;10500856;28;19937;-67
2022/07/31 04:02:43;;;;;;;;;;;;;;;;;;10500171;28;19925;-67
2022/07/31 04:07:45;;;;;;;;;;;;;;;;;;10499520;28;19963;-67
2022/07/31 04:12:47;;;;;;;;;;;;;;;;;;10500028;28;19932;-67
2022/07/31 04:17:49;;;;;;;;;;;;;;;;;;10499320;28;19928;-67
2022/07/31 04:22:51;;;;;;;;;;;;;;;;;;10499628;28;19937;-67
2022/07/31 04:27:53;;;;;;;;;;;;;;;;;;10498969;28;20383;-67
2022/07/31 04:32:58;;;;;;;;;;;;;;;;;;10499587;28;19932;-67
2022/07/31 04:38:00;;;;;;;;;;;;;;;;;;10499467;28;19928;-67
2022/07/31 04:43:02;;;;;;;;;;;;;;;;;;10498906;28;19938;-67
2022/07/31 04:48:04;;;;;;;;;;;;;;;;;;10499062;28;19924;-67
2022/07/31 04:53:06;;;;;;;;;;;;;;;;;;10498429;28;19925;-67
2022/07/31 04:58:09;;;;;;;;;;;;;;;;;;10498852;28;19925;-67
2022/07/31 05:03:11;;;;;;;;;;;;;;;;;;10498393;28;19924;-67
2022/07/31 05:08:13;;;;;;;;;;;;;;;;;;10498810;28;19924;-68
2022/07/31 05:13:15;;;;;;;;;;;;;;;;;;10497545;28;19924;-67
2022/07/31 05:18:17;;;;;;;;;;;;;;;;;;10497811;28;19931;-67
2022/07/31 05:23:19;;;;;;;;;;;;;;;;;;10503940;28;19935;-67
2022/07/31 05:28:21;;;;;;;;;;;;;;;;;;10506666;28;19999;-67
2022/07/31 05:33:31;;;;;;;;;;;;;;;;;;10497608;28;19924;-67
2022/07/31 05:38:33;;;;;;;;;;;;;;;;;;10505387;28;20393;-67
2022/07/31 05:43:35;;;;;;;;;;;;;;;;;;10505715;28;19925;-67
2022/07/31 05:48:37;;;;;;;;;;;;;;;;;;10505089;28;20291;-67
2022/07/31 05:53:39;;;;;;;;;;;;;;;;;;10505779;28;19924;-67
2022/07/31 05:58:42;;;;;;;;;;;;;;;;;;10505601;28;19925;-67
2022/07/31 06:03:44;;;;;;;;;;;;;;;;;;10505129;28;19924;-67
2022/07/31 06:08:53;;;;;;;;;;;;;;;;;;10505161;28;20015;-67
2022/07/31 06:13:55;;;;;;;;;;;;;;;;;;10504190;28;19932;-67
2022/07/31 06:18:57;;;;;;;;;;;;;;;;;;10503768;28;19924;-67
2022/07/31 06:23:59;;;;;;;;;;;;;;;;;;10504312;28;19924;-67
2022/07/31 06:29:01;;;;;;;;;;;;;;;;;;10503867;28;20295;-68
2022/07/31 06:34:03;;;;;;;;;;;;;;;;;;10502788;28;19932;-65
2022/07/31 06:39:05;;;;;;;;;;;;;;;;;;10503769;28;19932;-65
2022/07/31 06:44:07;;;;;;;;;;;;;;;;;;10503473;28;19925;-65
2022/07/31 06:49:09;;;;;;;;;;;;;;;;;;10502807;28;19935;-65
2022/07/31 06:54:11;;;;;;;;;;;;;;;;;;10503535;28;19925;-65
2022/07/31 06:59:13;;;;;;;;;;;;;;;;;;10503378;28;19931;-65
2022/07/31 07:04:15;;;;;;;;;;;;;;;;;;10502655;28;19931;-65
2022/07/31 07:09:17;;;;;;;;;;;;;;;;;;10502074;28;20375;-66
2022/07/31 07:14:20;;;;;;;;;;;;;;;;;;10493701;28;19935;-66
2022/07/31 07:19:22;;;;;;;;;;;;;;;;;;10500248;28;19931;-65
2022/07/31 07:24:24;;;;;;;;;;;;;;;;;;10499902;28;19924;-65
2022/07/31 07:29:26;;;;;;;;;;;;;;;;;;10501524;28;19932;-65
2022/07/31 07:34:28;;;;;;;;;;;;;;;;;;10501318;28;19925;-65
2022/07/31 07:39:31;;;;;;;;;;;;;;;;;;10499634;28;19928;-65
2022/07/31 07:44:33;;;;;;;;;;;;;;;;;;10499011;28;19929;-65
2022/07/31 07:49:35;;;;;;;;;;;;;;;;;;10501113;28;19935;-65
2022/07/31 07:54:37;;;;;;;;;;;;;;;;;;10535945;28;20698;-65
2022/07/31 07:59:39;;;;;;;;;;;;;;;;;;10526756;28;19939;-65
2022/07/31 08:04:42;;;;;;;;;;;;;;;;;;10493527;28;19935;-65
2022/07/31 08:09:48;;;;;;;;;;;;;;;;;;10493302;28;19929;-65
2022/07/31 08:14:50;;;;;;;;;;;;;;;;;;10492443;28;19933;-65
2022/07/31 08:19:52;;;;;;;;;;;;;;;;;;10492204;28;19951;-65
2022/07/31 08:24:55;;;;;;;;;;;;;;;;;;10491653;28;20371;-65
2022/07/31 08:29:57;;;;;;;;;;;;;;;;;;10492603;28;19929;-65
2022/07/31 08:34:59;;;;;;;;;;;;;;;;;;10492244;28;19933;-65
2022/07/31 08:40:02;;;;;;;;;;;;;;;;;;10515016;28;20286;-65
2022/07/31 08:45:04;;;;;;;;;;;;;;;;;;10532636;28;19928;-65
2022/07/31 08:50:06;;;;;;;;;;;;;;;;;;10533913;28;19928;-65
2022/07/31 08:55:08;;;;;;;;;;;;;;;;;;10532333;28;19938;-65
2022/07/31 09:00:11;;;;;;;;;;;;;;;;;;10533182;28;19932;-65
2022/07/31 09:05:14;;;;;;;;;;;;;;;;;;10533559;28;19928;-65
2022/07/31 09:10:17;;;;;;;;;;;;;;;;;;10533487;28;19928;-65
2022/07/31 09:15:19;;;;;;;;;;;;;;;;;;10532694;28;19928;-64
2022/07/31 09:20:21;;;;;;;;;;;;;;;;;;10533357;28;19932;-63
2022/07/31 09:25:23;;;;;;;;;;;;;;;;;;10532885;28;19928;-64
2022/07/31 09:30:25;;;;;;;;;;;;;;;;;;10533052;28;19935;-64
2022/07/31 09:35:27;;;;;;;;;;;;;;;;;;10532376;28;19928;-63
2022/07/31 09:40:29;;;;;;;;;;;;;;;;;;10532952;28;20079;-65
2022/07/31 09:45:31;;;;;;;;;;;;;;;;;;10524032;28;19954;-64
2022/07/31 09:50:33;;;;;;;;;;;;;;;;;;10535408;28;19931;-64
2022/07/31 09:55:36;;;;;;;;;;;;;;;;;;10539658;28;19924;-62
2022/07/31 10:00:38;;;;;;;;;;;;;;;;;;10515745;28;19930;-63
2022/07/31 10:05:40;;;;;;;;;;;;;;;;;;10497880;28;19935;-62
2022/07/31 10:10:42;;;;;;;;;;;;;;;;;;10504608;28;19924;-63
2022/07/31 10:15:44;;;;;;;;;;;;;;;;;;10504461;28;19924;-63
2022/07/31 10:20:46;;;;;;;;;;;;;;;;;;10504246;28;19932;-63
2022/07/31 10:25:48;;;;;;;;;;;;;;;;;;10504544;28;19925;-63
2022/07/31 10:30:54;;;;;;;;;;;;;;;;;;10503548;28;20023;-63
2022/07/31 10:35:56;;;;;;;;;;;;;;;;;;10503110;28;19925;-62
2022/07/31 10:41:02;;;;;;;;;;;;;;;;;;10502919;28;20378;-63
2022/07/31 10:46:04;;;;;;;;;;;;;;;;;;10503797;28;19931;-63
2022/07/31 10:51:08;;;;;;;;;;;;;;;;;;10502894;28;19939;-62
2022/07/31 10:56:12;;;;;;;;;;;;;;;;;;10501947;28;19928;-62
2022/07/31 11:01:14;;;;;;;;;;;;;;;;;;10503233;28;19970;-64
2022/07/31 11:06:20;;;;;;;;;;;;;;;;;;10502268;28;20346;-63
2022/07/31 11:11:22;;;;;;;;;;;;;;;;;;10502676;28;20015;-63
2022/07/31 11:16:27;;;;;;;;;;;;;;;;;;10499575;28;19924;-64
2022/07/31 11:21:30;;;;;;;;;;;;;;;;;;10501713;28;19928;-63
2022/07/31 11:26:39;;;;;;;;;;;;;;;;;;10502346;28;19925;-64
2022/07/31 11:31:43;;;;;;;;;;;;;;;;;;10499560;28;20357;-63
2022/07/31 11:36:45;;;;;;;;;;;;;;;;;;10498912;28;20260;-63
2022/07/31 11:41:53;;;;;;;;;;;;;;;;;;10501039;28;19991;-64
2022/07/31 11:46:55;;;;;;;;;;;;;;;;;;10500733;28;19924;-64
2022/07/31 11:51:57;;;;;;;;;;;;;;;;;;10489844;28;19925;-64
2022/07/31 11:56:59;;;;;;;;;;;;;;;;;;10458646;28;19925;-64
2022/07/31 12:02:01;;;;;;;;;;;;;;;;;;10459050;28;19929;-64
2022/07/31 12:07:03;;;;;;;;;;;;;;;;;;10459115;28;19937;-63
2022/07/31 12:12:05;;;;;;;;;;;;;;;;;;10468642;28;20395;-63
2022/07/31 12:17:08;;;;;;;;;;;;;;;;;;10498624;28;19939;-64
2022/07/31 12:22:10;;;;;;;;;;;;;;;;;;10498993;28;20387;-63
2022/07/31 12:27:12;;;;;;;;;;;;;;;;;;10499864;28;19931;-66
2022/07/31 12:32:14;;;;;;;;;;;;;;;;;;10499760;28;19931;-66
2022/07/31 12:37:17;;;;;;;;;;;;;;;;;;10481252;28;19948;-72
2022/07/31 12:42:19;;;;;;;;;;;;;;;;;;10499495;28;19950;-72
2022/07/31 12:47:21;;;;;;;;;;;;;;;;;;10498707;28;20387;-72
2022/07/31 12:52:26;;;;;;;;;;;;;;;;;;10496731;28;19925;-64
2022/07/31 12:57:28;;;;;;;;;;;;;;;;;;10498339;28;19954;-64
2022/07/31 13:02:30;;;;;;;;;;;;;;;;;;10497086;28;19943;-64
2022/07/31 13:07:32;;;;;;;;;;;;;;;;;;10498089;28;20291;-64
2022/07/31 13:12:34;;;;;;;;;;;;;;;;;;10497752;28;19924;-64
2022/07/31 13:17:36;;;;;;;;;;;;;;;;;;10497614;28;19924;-64
2022/07/31 13:22:43;;;;;;;;;;;;;;;;;;10498308;28;20011;-65
2022/07/31 13:27:45;;;;;;;;;;;;;;;;;;10497641;28;20380;-64
2022/07/31 13:32:47;;;;;;;;;;;;;;;;;;10497559;28;20360;-64
2022/07/31 13:37:49;;;;;;;;;;;;;;;;;;10497926;28;19933;-64
2022/07/31 13:42:51;;;;;;;;;;;;;;;;;;10501995;28;19932;-66
2022/07/31 13:47:53;;;;;;;;;;;;;;;;;;10505281;28;19955;-66
2022/07/31 13:53:00;;;;;;;;;;;;;;;;;;10505961;28;19982;-66
2022/07/31 13:58:02;;;;;;;;;;;;;;;;;;10504833;28;19928;-66
2022/07/31 14:03:04;;;;;;;;;;;;;;;;;;10505281;28;19924;-66
2022/07/31 14:08:06;;;;;;;;;;;;;;;;;;10504196;28;19947;-66
2022/07/31 14:13:28;;;;;;;;;;;;;;;;;;10509851;28;19932;-67
2022/07/31 14:18:31;;;;;;;;;;;;;;;;;;10506943;28;20299;-66
2022/07/31 14:23:33;;;;;;;;;;;;;;;;;;10494329;28;19928;-66
2022/07/31 14:28:41;;;;;;;;;;;;;;;;;;10531313;28;20021;-66
2022/07/31 14:33:43;;;;;;;;;;;;;;;;;;10455902;28;20008;-66
2022/07/31 14:38:45;;;;;;;;;;;;;;;;;;10455078;28;19928;-64
2022/07/31 14:43:47;;;;;;;;;;;;;;;;;;10478058;28;19954;-66
2022/07/31 14:48:49;;;;;;;;;;;;;;;;;;10495264;28;19928;-65
2022/07/31 14:53:51;;;;;;;;;;;;;;;;;;10497518;28;20279;-65
2022/07/31 14:58:53;;;;;;;;;;;;;;;;;;10496990;28;19933;-65
2022/07/31 15:03:58;;;;;;;;;;;;;;;;;;10512019;28;19928;-65
2022/07/31 15:09:01;;;;;;;;;;;;;;;;;;10506347;28;20387;-65
2022/07/31 15:14:03;;;;;;;;;;;;;;;;;;10495916;28;20291;-66
2022/07/31 15:19:05;;;;;;;;;;;;;;;;;;10490681;28;19928;-65
2022/07/31 15:24:07;;;;;;;;;;;;;;;;;;10503312;28;19935;-64
2022/07/31 15:29:09;;;;;;;;;;;;;;;;;;10497508;22;19929;-69
2022/07/31 15:34:11;;;;;;;;;;;;;;;;;;10428346;28;19933;-68
2022/07/31 15:39:14;;;;;;;;;;;;;;;;;;10452916;28;19929;-67
2022/07/31 15:44:16;;;;;;;;;;;;;;;;;;10467600;28;20318;-66
2022/07/31 15:49:19;;;;;;;;;;;;;;;;;;10452273;28;19929;-69
2022/07/31 15:54:21;;;;;;;;;;;;;;;;;;10452276;28;19935;-68
2022/07/31 15:59:23;;;;;;;;;;;;;;;;;;10452399;28;19940;-67
2022/07/31 16:04:25;;;;;;;;;;;;;;;;;;10451191;28;20268;-67
2022/07/31 16:09:32;;;;;;;;;;;;;;;;;;10451444;28;19936;-67
2022/07/31 16:14:34;;;;;;;;;;;;;;;;;;10451416;28;20383;-67
2022/07/31 16:19:36;;;;;;;;;;;;;;;;;;10451759;28;19929;-66
2022/07/31 16:24:38;;;;;;;;;;;;;;;;;;10457140;28;19925;-66
2022/07/31 16:29:40;;;;;;;;;;;;;;;;;;10487561;28;19924;-67
2022/07/31 16:35:00;;;;;;;;;;;;;;;;;;10541000;28;19970;-67
2022/07/31 16:40:02;;;;;;;;;;;;;;;;;;10540537;28;20402;-66
2022/07/31 16:45:05;;;;;;;;;;;;;;;;;;10540419;28;20298;-68
2022/07/31 16:50:08;;;;;;;;;;;;;;;;;;10540901;28;19924;-66
2022/07/31 16:55:10;;;;;;;;;;;;;;;;;;10540032;28;19930;-67
2022/07/31 17:00:12;;;;;;;;;;;;;;;;;;10522928;28;19964;-67
2022/07/31 17:05:15;;;;;;;;;;;;;;;;;;10539808;28;20290;-67
2022/07/31 17:10:17;;;;;;;;;;;;;;;;;;10540795;28;19924;-68
2022/07/31 17:15:19;;;;;;;;;;;;;;;;;;10539303;28;20397;-68
2022/07/31 17:20:24;;;;;;;;;;;;;;;;;;10539989;28;19928;-67
2022/07/31 17:25:26;;;;;;;;;;;;;;;;;;10540161;28;19931;-66
2022/07/31 17:30:28;;;;;;;;;;;;;;;;;;10539420;28;20267;-66
2022/07/31 17:35:30;;;;;;;;;;;;;;;;;;10539934;28;19924;-66
2022/07/31 17:40:32;;;;;;;;;;;;;;;;;;10537975;28;19935;-67
2022/07/31 17:45:44;;;;;;;;;;;;;;;;;;10539393;28;19924;-67
2022/07/31 17:51:00;;;;;;;;;;;;;;;;;;10539193;28;19924;-67
2022/07/31 17:56:04;;;;;;;;;;;;;;;;;;10539293;28;19928;-67
2022/07/31 18:01:06;;;;;;;;;;;;;;;;;;10539002;28;19938;-67
2022/07/31 18:06:08;;;;;;;;;;;;;;;;;;10539523;28;19924;-67
2022/07/31 18:11:10;;;;;;;;;;;;;;;;;;10539036;28;19946;-67
2022/07/31 18:16:12;;;;;;;;;;;;;;;;;;10538722;28;20379;-67
2022/07/31 18:21:15;;;;;;;;;;;;;;;;;;10538981;28;19924;-67
2022/07/31 18:26:17;;;;;;;;;;;;;;;;;;10538515;28;19946;-67
2022/07/31 18:31:20;;;;;;;;;;;;;;;;;;10543867;28;20274;-67
2022/07/31 18:36:33;;;;;;;;;;;;;;;;;;10542804;28;20039;-67
2022/07/31 18:41:38;;;;;;;;;;;;;;;;;;10543532;28;19924;-67
2022/07/31 18:46:40;;;;;;;;;;;;;;;;;;10543544;28;19924;-67
2022/07/31 18:51:42;;;;;;;;;;;;;;;;;;10542889;28;19940;-67
2022/07/31 18:56:46;;;;;;;;;;;;;;;;;;10541906;28;21561;-67
2022/07/31 19:01:48;;;;;;;;;;;;;;;;;;10541059;28;19931;-67
2022/07/31 19:06:50;;;;;;;;;;;;;;;;;;10524821;28;20062;-67
2022/07/31 19:11:55;;;;;;;;;;;;;;;;;;10542371;28;19924;-67
2022/07/31 19:17:00;;;;;;;;;;;;;;;;;;10541935;28;19924;-67
2022/07/31 19:22:02;;;;;;;;;;;;;;;;;;10528327;28;19928;-68
2022/07/31 19:27:05;;;;;;;;;;;;;;;;;;10500368;28;19970;-68
2022/07/31 19:32:07;;;;;;;;;;;;;;;;;;10440143;28;1760274;-68
2022/07/31 19:37:09;;;;;;;;;;;;;;;;;;10541056;28;19924;-67
2022/07/31 19:42:11;;;;;;;;;;;;;;;;;;10542173;28;19924;-66
2022/07/31 19:47:13;;;;;;;;;;;;;;;;;;10543540;28;19924;-66
2022/07/31 19:52:16;;;;;;;;;;;;;;;;;;10542601;28;20378;-67
2022/07/31 19:57:18;;;;;;;;;;;;;;;;;;10524246;28;19927;-67
2022/07/31 20:02:20;;;;;;;;;;;;;;;;;;10542312;28;20367;-66
2022/07/31 20:07:22;;;;;;;;;;;;;;;;;;10542105;28;19928;-66
2022/07/31 20:12:24;;;;;;;;;;;;;;;;;;10542125;28;19930;-66
2022/07/31 20:17:26;;;;;;;;;;;;;;;;;;10541715;28;20382;-67
2022/07/31 20:22:28;;;;;;;;;;;;;;;;;;10541504;28;20405;-67
2022/07/31 20:27:30;;;;;;;;;;;;;;;;;;10541026;28;20371;-67
2022/07/31 20:32:32;;;;;;;;;;;;;;;;;;10540946;28;19928;-67
2022/07/31 20:37:34;;;;;;;;;;;;;;;;;;10541594;28;19924;-67
2022/07/31 20:42:36;;;;;;;;;;;;;;;;;;10541310;28;19932;-67
2022/07/31 20:47:39;;;;;;;;;;;;;;;;;;10540658;28;19947;-67
2022/07/31 20:52:42;;;;;;;;;;;;;;;;;;10539958;28;19924;-67
2022/07/31 20:57:49;;;;;;;;;;;;;;;;;;10540393;28;19931;-67
2022/07/31 21:02:51;;;;;;;;;;;;;;;;;;10540146;28;19932;-67
2022/07/31 21:07:55;;;;;;;;;;;;;;;;;;10540278;28;19932;-67
2022/07/31 21:12:57;;;;;;;;;;;;;;;;;;10540856;28;19931;-67
2022/07/31 21:17:59;;;;;;;;;;;;;;;;;;10540540;28;19930;-66
2022/07/31 21:23:03;;;;;;;;;;;;;;;;;;10539458;28;19924;-66
2022/07/31 21:28:05;;;;;;;;;;;;;;;;;;10539590;28;20370;-67
2022/07/31 21:33:07;;;;;;;;;;;;;;;;;;10502817;28;19943;-67
2022/07/31 21:38:09;;;;;;;;;;;;;;;;;;10539166;28;19924;-67
2022/07/31 21:43:13;;;;;;;;;;;;;;;;;;10540064;28;20019;-67
2022/07/31 21:48:17;;;;;;;;;;;;;;;;;;10539236;28;19931;-66
2022/07/31 21:53:20;;;;;;;;;;;;;;;;;;10539638;28;19924;-67
2022/07/31 21:58:22;;;;;;;;;;;;;;;;;;10539095;28;20018;-66
2022/07/31 22:03:24;;;;;;;;;;;;;;;;;;10542729;28;19931;-67
2022/07/31 22:08:26;;;;;;;;;;;;;;;;;;10547255;28;19924;-66
2022/07/31 22:13:28;;;;;;;;;;;;;;;;;;10546756;28;19932;-67
2022/07/31 22:18:30;;;;;;;;;;;;;;;;;;10546462;28;19924;-66
2022/07/31 22:23:33;;;;;;;;;;;;;;;;;;10546941;28;19932;-67
2022/07/31 22:28:35;;;;;;;;;;;;;;;;;;10546249;28;19928;-66
2022/07/31 22:33:37;;;;;;;;;;;;;;;;;;10545631;28;19924;-67
2022/07/31 22:38:39;;;;;;;;;;;;;;;;;;10546335;28;19931;-67
2022/07/31 22:43:41;;;;;;;;;;;;;;;;;;10545377;28;20318;-67
2022/07/31 22:49:03;;;;;;;;;;;;;;;;;;10461868;28;19955;-67
2022/07/31 22:54:05;;;;;;;;;;;;;;;;;;10462331;28;19925;-67
2022/07/31 22:59:07;;;;;;;;;;;;;;;;;;10480179;28;19933;-68
2022/07/31 23:04:09;;;;;;;;;;;;;;;;;;10545168;28;19924;-67
2022/07/31 23:09:11;;;;;;;;;;;;;;;;;;10544327;28;20290;-68
2022/07/31 23:14:14;;;;;;;;;;;;;;;;;;10543156;28;20275;-68
2022/07/31 23:19:16;;;;;;;;;;;;;;;;;;10544675;28;19931;-67
2022/07/31 23:24:18;;;;;;;;;;;;;;;;;;10544398;28;19928;-67
2022/07/31 23:29:20;;;;;;;;;;;;;;;;;;10543762;28;19931;-66
2022/07/31 23:34:22;;;;;;;;;;;;;;;;;;10543163;28;19928;-67
2022/07/31 23:39:24;;;;;;;;;;;;;;;;;;10543914;28;19924;-66
2022/07/31 23:44:26;;;;;;;;;;;;;;;;;;10543033;28;20275;-67
2022/07/31 23:49:28;;;;;;;;;;;;;;;;;;10542698;28;19924;-68
2022/07/31 23:54:31;;;;;;;;;;;;;;;;;;10543233;28;19925;-68
2022/07/31 23:59:33;;;;;;;;;;;;;;;;;;10542875;28;19928;-68
